sensor_id;sensor_type;location;lat;lon;timestamp;P1;durP1;ratioP1;P2;durP2;ratioP2
40863;SDS011;26582;47.524;19.012;2023-12-07T00:00:10;5.25;;;3.15;;
40863;SDS011;26582;47.524;19.012;2023-12-07T00:02:37;4.68;;;3.42;;
40863;SDS011;26582;47.524;19.012;2023-12-07T00:05:04;5.45;;;3.72;;
40863;SDS011;26582;47.524;19.012;2023-12-07T00:07:31;4.55;;;3.20;;
40863;SDS011;26582;47.524;19.012;2023-12-07T00:09:58;4.78;;;3.45;;
40863;SDS011;26582;47.524;19.012;2023-12-07T00:12:26;4.55;;;3.22;;
40863;SDS011;26582;47.524;19.012;2023-12-07T00:14:52;4.97;;;3.30;;
40863;SDS011;26582;47.524;19.012;2023-12-07T00:17:19;4.97;;;3.45;;
40863;SDS011;26582;47.524;19.012;2023-12-07T00:19:46;4.95;;;3.38;;
40863;SDS011;26582;47.524;19.012;2023-12-07T00:22:13;4.53;;;3.35;;
40863;SDS011;26582;47.524;19.012;2023-12-07T00:24:40;5.30;;;3.90;;
40863;SDS011;26582;47.524;19.012;2023-12-07T00:27:07;5.35;;;3.55;;
40863;SDS011;26582;47.524;19.012;2023-12-07T00:29:36;6.20;;;3.38;;
40863;SDS011;26582;47.524;19.012;2023-12-07T00:32:03;4.95;;;3.25;;
40863;SDS011;26582;47.524;19.012;2023-12-07T00:34:30;6.13;;;3.47;;
40863;SDS011;26582;47.524;19.012;2023-12-07T00:36:56;5.43;;;3.13;;
40863;SDS011;26582;47.524;19.012;2023-12-07T00:39:23;3.83;;;2.90;;
40863;SDS011;26582;47.524;19.012;2023-12-07T00:41:50;4.25;;;2.65;;
40863;SDS011;26582;47.524;19.012;2023-12-07T00:44:17;4.00;;;2.70;;
40863;SDS011;26582;47.524;19.012;2023-12-07T00:46:46;2.40;;;2.10;;
40863;SDS011;26582;47.524;19.012;2023-12-07T00:49:12;3.05;;;2.38;;
40863;SDS011;26582;47.524;19.012;2023-12-07T00:51:39;2.72;;;2.30;;
40863;SDS011;26582;47.524;19.012;2023-12-07T00:54:05;2.80;;;2.15;;
40863;SDS011;26582;47.524;19.012;2023-12-07T00:56:32;2.00;;;1.80;;
40863;SDS011;26582;47.524;19.012;2023-12-07T00:58:59;1.58;;;1.48;;
40863;SDS011;26582;47.524;19.012;2023-12-07T01:01:25;2.00;;;1.50;;
40863;SDS011;26582;47.524;19.012;2023-12-07T01:03:55;1.35;;;1.25;;
40863;SDS011;26582;47.524;19.012;2023-12-07T01:06:22;1.60;;;1.50;;
40863;SDS011;26582;47.524;19.012;2023-12-07T01:08:48;2.42;;;1.55;;
40863;SDS011;26582;47.524;19.012;2023-12-07T01:11:15;1.75;;;1.40;;
40863;SDS011;26582;47.524;19.012;2023-12-07T01:13:42;1.40;;;1.30;;
40863;SDS011;26582;47.524;19.012;2023-12-07T01:16:08;1.33;;;1.23;;
40863;SDS011;26582;47.524;19.012;2023-12-07T01:18:35;1.48;;;1.38;;
40863;SDS011;26582;47.524;19.012;2023-12-07T01:21:03;1.40;;;1.30;;
40863;SDS011;26582;47.524;19.012;2023-12-07T01:23:31;1.37;;;1.27;;
40863;SDS011;26582;47.524;19.012;2023-12-07T01:25:58;1.40;;;1.30;;
40863;SDS011;26582;47.524;19.012;2023-12-07T01:28:27;1.70;;;1.60;;
40863;SDS011;26582;47.524;19.012;2023-12-07T01:30:53;1.98;;;1.77;;
40863;SDS011;26582;47.524;19.012;2023-12-07T01:33:20;2.35;;;1.95;;
40863;SDS011;26582;47.524;19.012;2023-12-07T01:35:47;2.40;;;1.80;;
40863;SDS011;26582;47.524;19.012;2023-12-07T01:38:15;2.10;;;1.90;;
40863;SDS011;26582;47.524;19.012;2023-12-07T01:40:42;2.00;;;1.80;;
40863;SDS011;26582;47.524;19.012;2023-12-07T01:43:08;2.30;;;1.90;;
40863;SDS011;26582;47.524;19.012;2023-12-07T01:45:35;1.85;;;1.73;;
40863;SDS011;26582;47.524;19.012;2023-12-07T01:48:01;2.58;;;2.05;;
40863;SDS011;26582;47.524;19.012;2023-12-07T01:50:28;1.85;;;1.70;;
40863;SDS011;26582;47.524;19.012;2023-12-07T01:52:57;1.92;;;1.83;;
40863;SDS011;26582;47.524;19.012;2023-12-07T01:55:28;2.00;;;1.77;;
40863;SDS011;26582;47.524;19.012;2023-12-07T01:57:58;2.33;;;1.98;;
40863;SDS011;26582;47.524;19.012;2023-12-07T02:00:25;1.98;;;1.75;;
40863;SDS011;26582;47.524;19.012;2023-12-07T02:02:52;2.20;;;1.92;;
40863;SDS011;26582;47.524;19.012;2023-12-07T02:05:20;3.08;;;2.15;;
40863;SDS011;26582;47.524;19.012;2023-12-07T02:07:46;2.67;;;2.20;;
40863;SDS011;26582;47.524;19.012;2023-12-07T02:10:13;1.80;;;1.67;;
40863;SDS011;26582;47.524;19.012;2023-12-07T02:12:41;2.00;;;1.80;;
40863;SDS011;26582;47.524;19.012;2023-12-07T02:15:09;1.75;;;1.65;;
40863;SDS011;26582;47.524;19.012;2023-12-07T02:17:38;2.20;;;1.70;;
40863;SDS011;26582;47.524;19.012;2023-12-07T02:20:17;2.20;;;1.75;;
40863;SDS011;26582;47.524;19.012;2023-12-07T02:22:52;1.95;;;1.75;;
40863;SDS011;26582;47.524;19.012;2023-12-07T02:25:22;2.10;;;1.90;;
40863;SDS011;26582;47.524;19.012;2023-12-07T02:27:52;2.78;;;1.80;;
40863;SDS011;26582;47.524;19.012;2023-12-07T02:30:18;2.30;;;1.80;;
40863;SDS011;26582;47.524;19.012;2023-12-07T02:32:45;2.47;;;1.98;;
40863;SDS011;26582;47.524;19.012;2023-12-07T02:35:12;3.83;;;2.05;;
40863;SDS011;26582;47.524;19.012;2023-12-07T02:37:40;2.97;;;2.15;;
40863;SDS011;26582;47.524;19.012;2023-12-07T02:40:09;2.40;;;1.80;;
40863;SDS011;26582;47.524;19.012;2023-12-07T02:42:40;2.25;;;1.90;;
40863;SDS011;26582;47.524;19.012;2023-12-07T02:45:09;2.92;;;2.10;;
40863;SDS011;26582;47.524;19.012;2023-12-07T02:47:38;2.47;;;2.00;;
40863;SDS011;26582;47.524;19.012;2023-12-07T02:50:05;2.00;;;1.80;;
40863;SDS011;26582;47.524;19.012;2023-12-07T02:52:33;3.33;;;2.20;;
40863;SDS011;26582;47.524;19.012;2023-12-07T02:55:00;2.30;;;1.92;;
40863;SDS011;26582;47.524;19.012;2023-12-07T02:57:27;2.22;;;1.83;;
40863;SDS011;26582;47.524;19.012;2023-12-07T02:59:54;2.13;;;1.90;;
40863;SDS011;26582;47.524;19.012;2023-12-07T03:02:22;1.65;;;1.55;;
40863;SDS011;26582;47.524;19.012;2023-12-07T03:04:49;1.60;;;1.50;;
40863;SDS011;26582;47.524;19.012;2023-12-07T03:07:15;3.00;;;1.90;;
40863;SDS011;26582;47.524;19.012;2023-12-07T03:09:42;2.83;;;2.30;;
40863;SDS011;26582;47.524;19.012;2023-12-07T03:12:09;1.95;;;1.80;;
40863;SDS011;26582;47.524;19.012;2023-12-07T03:14:35;2.30;;;2.10;;
40863;SDS011;26582;47.524;19.012;2023-12-07T03:17:02;2.65;;;2.03;;
40863;SDS011;26582;47.524;19.012;2023-12-07T03:19:30;2.72;;;2.17;;
40863;SDS011;26582;47.524;19.012;2023-12-07T03:21:57;2.85;;;2.10;;
40863;SDS011;26582;47.524;19.012;2023-12-07T03:24:24;2.95;;;2.40;;
40863;SDS011;26582;47.524;19.012;2023-12-07T03:26:50;2.05;;;1.83;;
40863;SDS011;26582;47.524;19.012;2023-12-07T03:29:17;3.55;;;2.30;;
40863;SDS011;26582;47.524;19.012;2023-12-07T03:31:44;2.67;;;2.20;;
40863;SDS011;26582;47.524;19.012;2023-12-07T03:34:11;2.88;;;2.22;;
40863;SDS011;26582;47.524;19.012;2023-12-07T03:36:41;2.72;;;2.20;;
40863;SDS011;26582;47.524;19.012;2023-12-07T03:39:08;2.58;;;2.30;;
40863;SDS011;26582;47.524;19.012;2023-12-07T03:41:36;2.75;;;2.40;;
40863;SDS011;26582;47.524;19.012;2023-12-07T03:44:02;4.15;;;2.50;;
40863;SDS011;26582;47.524;19.012;2023-12-07T03:46:29;3.10;;;2.55;;
40863;SDS011;26582;47.524;19.012;2023-12-07T03:48:56;2.22;;;1.92;;
40863;SDS011;26582;47.524;19.012;2023-12-07T03:51:22;2.80;;;2.33;;
40863;SDS011;26582;47.524;19.012;2023-12-07T03:53:50;2.80;;;2.45;;
40863;SDS011;26582;47.524;19.012;2023-12-07T03:56:23;2.25;;;1.98;;
40863;SDS011;26582;47.524;19.012;2023-12-07T03:58:50;2.40;;;2.20;;
40863;SDS011;26582;47.524;19.012;2023-12-07T04:01:18;2.83;;;2.15;;
40863;SDS011;26582;47.524;19.012;2023-12-07T04:03:48;2.22;;;2.03;;
40863;SDS011;26582;47.524;19.012;2023-12-07T04:06:15;2.47;;;2.03;;
40863;SDS011;26582;47.524;19.012;2023-12-07T04:08:41;2.20;;;1.80;;
40863;SDS011;26582;47.524;19.012;2023-12-07T04:11:09;2.63;;;2.00;;
40863;SDS011;26582;47.524;19.012;2023-12-07T04:13:36;2.42;;;1.80;;
40863;SDS011;26582;47.524;19.012;2023-12-07T04:16:03;1.80;;;1.60;;
40863;SDS011;26582;47.524;19.012;2023-12-07T04:18:30;1.67;;;1.40;;
40863;SDS011;26582;47.524;19.012;2023-12-07T04:20:57;1.65;;;1.55;;
40863;SDS011;26582;47.524;19.012;2023-12-07T04:23:24;1.80;;;1.50;;
40863;SDS011;26582;47.524;19.012;2023-12-07T04:25:51;1.90;;;1.60;;
40863;SDS011;26582;47.524;19.012;2023-12-07T04:28:19;1.98;;;1.50;;
40863;SDS011;26582;47.524;19.012;2023-12-07T04:30:46;1.60;;;1.50;;
40863;SDS011;26582;47.524;19.012;2023-12-07T04:33:12;1.90;;;1.67;;
40863;SDS011;26582;47.524;19.012;2023-12-07T04:35:39;2.00;;;1.70;;
40863;SDS011;26582;47.524;19.012;2023-12-07T04:38:06;1.58;;;1.48;;
40863;SDS011;26582;47.524;19.012;2023-12-07T04:40:33;1.67;;;1.40;;
40863;SDS011;26582;47.524;19.012;2023-12-07T04:42:59;1.83;;;1.70;;
40863;SDS011;26582;47.524;19.012;2023-12-07T04:45:27;2.47;;;1.70;;
40863;SDS011;26582;47.524;19.012;2023-12-07T04:47:54;1.63;;;1.52;;
40863;SDS011;26582;47.524;19.012;2023-12-07T04:50:22;1.98;;;1.65;;
40863;SDS011;26582;47.524;19.012;2023-12-07T04:52:48;1.60;;;1.50;;
40863;SDS011;26582;47.524;19.012;2023-12-07T04:55:14;2.47;;;1.70;;
40863;SDS011;26582;47.524;19.012;2023-12-07T04:57:41;1.60;;;1.50;;
40863;SDS011;26582;47.524;19.012;2023-12-07T05:00:08;2.50;;;1.90;;
40863;SDS011;26582;47.524;19.012;2023-12-07T05:02:40;1.90;;;1.75;;
40863;SDS011;26582;47.524;19.012;2023-12-07T05:05:06;1.70;;;1.60;;
40863;SDS011;26582;47.524;19.012;2023-12-07T05:07:34;2.50;;;2.00;;
40863;SDS011;26582;47.524;19.012;2023-12-07T05:10:00;1.88;;;1.67;;
40863;SDS011;26582;47.524;19.012;2023-12-07T05:12:27;1.80;;;1.67;;
40863;SDS011;26582;47.524;19.012;2023-12-07T05:14:54;1.80;;;1.70;;
40863;SDS011;26582;47.524;19.012;2023-12-07T05:17:21;2.00;;;1.80;;
40863;SDS011;26582;47.524;19.012;2023-12-07T05:19:49;2.25;;;1.75;;
40863;SDS011;26582;47.524;19.012;2023-12-07T05:22:16;1.60;;;1.50;;
40863;SDS011;26582;47.524;19.012;2023-12-07T05:24:43;1.70;;;1.60;;
40863;SDS011;26582;47.524;19.012;2023-12-07T05:27:09;2.20;;;1.83;;
40863;SDS011;26582;47.524;19.012;2023-12-07T05:29:36;2.15;;;1.70;;
40863;SDS011;26582;47.524;19.012;2023-12-07T05:32:04;1.55;;;1.45;;
40863;SDS011;26582;47.524;19.012;2023-12-07T05:34:31;2.65;;;1.60;;
40863;SDS011;26582;47.524;19.012;2023-12-07T05:37:00;1.70;;;1.60;;
40863;SDS011;26582;47.524;19.012;2023-12-07T05:39:27;2.45;;;1.60;;
40863;SDS011;26582;47.524;19.012;2023-12-07T05:41:53;1.70;;;1.38;;
40863;SDS011;26582;47.524;19.012;2023-12-07T05:44:20;1.98;;;1.55;;
40863;SDS011;26582;47.524;19.012;2023-12-07T05:46:47;1.50;;;1.40;;
40863;SDS011;26582;47.524;19.012;2023-12-07T05:49:14;1.67;;;1.48;;
40863;SDS011;26582;47.524;19.012;2023-12-07T05:51:41;1.55;;;1.45;;
40863;SDS011;26582;47.524;19.012;2023-12-07T05:54:09;2.17;;;1.50;;
40863;SDS011;26582;47.524;19.012;2023-12-07T05:56:36;2.28;;;1.70;;
40863;SDS011;26582;47.524;19.012;2023-12-07T05:59:03;1.73;;;1.55;;
40863;SDS011;26582;47.524;19.012;2023-12-07T06:01:29;1.88;;;1.60;;
40863;SDS011;26582;47.524;19.012;2023-12-07T06:03:57;2.53;;;1.83;;
40863;SDS011;26582;47.524;19.012;2023-12-07T06:06:24;1.98;;;1.67;;
40863;SDS011;26582;47.524;19.012;2023-12-07T06:08:51;2.33;;;1.90;;
40863;SDS011;26582;47.524;19.012;2023-12-07T06:11:19;3.25;;;1.92;;
40863;SDS011;26582;47.524;19.012;2023-12-07T06:13:45;2.67;;;1.90;;
40863;SDS011;26582;47.524;19.012;2023-12-07T06:16:12;5.28;;;2.50;;
40863;SDS011;26582;47.524;19.012;2023-12-07T06:18:39;3.90;;;2.53;;
40863;SDS011;26582;47.524;19.012;2023-12-07T06:21:06;5.38;;;3.13;;
40863;SDS011;26582;47.524;19.012;2023-12-07T06:23:33;4.30;;;3.22;;
40863;SDS011;26582;47.524;19.012;2023-12-07T06:26:00;4.32;;;3.20;;
40863;SDS011;26582;47.524;19.012;2023-12-07T06:28:31;4.72;;;3.50;;
40863;SDS011;26582;47.524;19.012;2023-12-07T06:31:01;5.72;;;3.97;;
40863;SDS011;26582;47.524;19.012;2023-12-07T06:33:32;4.97;;;3.40;;
40863;SDS011;26582;47.524;19.012;2023-12-07T06:36:00;5.30;;;3.45;;
40863;SDS011;26582;47.524;19.012;2023-12-07T06:38:27;5.82;;;3.90;;
40863;SDS011;26582;47.524;19.012;2023-12-07T06:40:53;6.15;;;4.22;;
40863;SDS011;26582;47.524;19.012;2023-12-07T06:43:21;6.45;;;3.97;;
40863;SDS011;26582;47.524;19.012;2023-12-07T06:45:49;5.60;;;4.10;;
40863;SDS011;26582;47.524;19.012;2023-12-07T06:48:16;5.93;;;4.30;;
40863;SDS011;26582;47.524;19.012;2023-12-07T06:50:43;6.18;;;4.22;;
40863;SDS011;26582;47.524;19.012;2023-12-07T06:53:10;6.68;;;4.32;;
40863;SDS011;26582;47.524;19.012;2023-12-07T06:55:36;7.15;;;4.60;;
40863;SDS011;26582;47.524;19.012;2023-12-07T06:58:03;5.95;;;4.35;;
40863;SDS011;26582;47.524;19.012;2023-12-07T07:00:30;6.85;;;4.70;;
40863;SDS011;26582;47.524;19.012;2023-12-07T07:02:59;8.35;;;4.85;;
40863;SDS011;26582;47.524;19.012;2023-12-07T07:05:26;7.90;;;4.97;;
40863;SDS011;26582;47.524;19.012;2023-12-07T07:07:52;8.63;;;4.93;;
40863;SDS011;26582;47.524;19.012;2023-12-07T07:10:20;6.68;;;4.97;;
40863;SDS011;26582;47.524;19.012;2023-12-07T07:12:47;8.85;;;5.22;;
40863;SDS011;26582;47.524;19.012;2023-12-07T07:15:16;7.03;;;5.03;;
40863;SDS011;26582;47.524;19.012;2023-12-07T07:20:11;6.53;;;4.40;;
40863;SDS011;26582;47.524;19.012;2023-12-07T07:22:38;6.82;;;4.85;;
40863;SDS011;26582;47.524;19.012;2023-12-07T07:25:06;7.80;;;5.53;;
40863;SDS011;26582;47.524;19.012;2023-12-07T07:27:33;8.35;;;5.25;;
40863;SDS011;26582;47.524;19.012;2023-12-07T07:29:59;5.57;;;3.90;;
40863;SDS011;26582;47.524;19.012;2023-12-07T07:32:29;7.88;;;5.50;;
40863;SDS011;26582;47.524;19.012;2023-12-07T07:34:56;8.13;;;5.13;;
40863;SDS011;26582;47.524;19.012;2023-12-07T07:37:24;7.32;;;4.70;;
40863;SDS011;26582;47.524;19.012;2023-12-07T07:39:51;7.88;;;4.95;;
40863;SDS011;26582;47.524;19.012;2023-12-07T07:42:17;8.38;;;5.38;;
40863;SDS011;26582;47.524;19.012;2023-12-07T07:44:44;8.77;;;4.85;;
40863;SDS011;26582;47.524;19.012;2023-12-07T07:47:11;9.45;;;5.38;;
40863;SDS011;26582;47.524;19.012;2023-12-07T07:49:37;7.57;;;4.63;;
40863;SDS011;26582;47.524;19.012;2023-12-07T07:52:04;7.65;;;5.38;;
40863;SDS011;26582;47.524;19.012;2023-12-07T07:54:32;9.45;;;5.70;;
40863;SDS011;26582;47.524;19.012;2023-12-07T07:56:59;8.02;;;5.32;;
40863;SDS011;26582;47.524;19.012;2023-12-07T07:59:25;10.18;;;5.95;;
40863;SDS011;26582;47.524;19.012;2023-12-07T08:01:52;7.68;;;6.18;;
40863;SDS011;26582;47.524;19.012;2023-12-07T08:04:19;8.20;;;5.38;;
40863;SDS011;26582;47.524;19.012;2023-12-07T08:06:45;8.65;;;5.57;;
40863;SDS011;26582;47.524;19.012;2023-12-07T08:09:12;10.30;;;6.47;;
40863;SDS011;26582;47.524;19.012;2023-12-07T08:11:40;10.00;;;5.78;;
40863;SDS011;26582;47.524;19.012;2023-12-07T08:15:05;12.05;;;6.70;;
40863;SDS011;26582;47.524;19.012;2023-12-07T08:17:36;10.23;;;5.80;;
40863;SDS011;26582;47.524;19.012;2023-12-07T08:20:04;9.52;;;6.10;;
40863;SDS011;26582;47.524;19.012;2023-12-07T08:22:32;9.23;;;5.93;;
40863;SDS011;26582;47.524;19.012;2023-12-07T08:24:59;10.50;;;6.70;;
40863;SDS011;26582;47.524;19.012;2023-12-07T08:27:26;10.50;;;6.25;;
40863;SDS011;26582;47.524;19.012;2023-12-07T08:29:52;10.68;;;6.60;;
40863;SDS011;26582;47.524;19.012;2023-12-07T08:32:20;10.75;;;6.47;;
40863;SDS011;26582;47.524;19.012;2023-12-07T08:35:06;13.48;;;6.22;;
40863;SDS011;26582;47.524;19.012;2023-12-07T08:37:33;11.63;;;6.65;;
40863;SDS011;26582;47.524;19.012;2023-12-07T08:40:00;10.90;;;6.57;;
40863;SDS011;26582;47.524;19.012;2023-12-07T08:42:27;9.93;;;5.88;;
40863;SDS011;26582;47.524;19.012;2023-12-07T08:44:56;9.40;;;6.25;;
40863;SDS011;26582;47.524;19.012;2023-12-07T08:47:24;10.63;;;6.07;;
40863;SDS011;26582;47.524;19.012;2023-12-07T08:49:52;11.30;;;6.88;;
40863;SDS011;26582;47.524;19.012;2023-12-07T08:52:19;10.93;;;6.40;;
40863;SDS011;26582;47.524;19.012;2023-12-07T08:54:46;11.18;;;6.22;;
40863;SDS011;26582;47.524;19.012;2023-12-07T08:57:12;8.65;;;5.70;;
40863;SDS011;26582;47.524;19.012;2023-12-07T08:59:39;11.20;;;6.25;;
40863;SDS011;26582;47.524;19.012;2023-12-07T09:02:06;11.70;;;6.97;;
40863;SDS011;26582;47.524;19.012;2023-12-07T09:04:34;10.02;;;6.85;;
40863;SDS011;26582;47.524;19.012;2023-12-07T09:07:00;9.10;;;6.00;;
40863;SDS011;26582;47.524;19.012;2023-12-07T09:09:27;10.85;;;6.25;;
40863;SDS011;26582;47.524;19.012;2023-12-07T09:11:54;10.57;;;6.35;;
40863;SDS011;26582;47.524;19.012;2023-12-07T09:14:20;10.52;;;6.47;;
40863;SDS011;26582;47.524;19.012;2023-12-07T09:16:47;9.95;;;6.18;;
40863;SDS011;26582;47.524;19.012;2023-12-07T09:19:14;10.73;;;6.50;;
40863;SDS011;26582;47.524;19.012;2023-12-07T09:21:42;10.57;;;6.47;;
40863;SDS011;26582;47.524;19.012;2023-12-07T09:24:08;9.68;;;5.75;;
40863;SDS011;26582;47.524;19.012;2023-12-07T09:26:35;8.88;;;5.68;;
40863;SDS011;26582;47.524;19.012;2023-12-07T09:29:02;9.65;;;6.18;;
40863;SDS011;26582;47.524;19.012;2023-12-07T09:31:28;8.52;;;5.03;;
40863;SDS011;26582;47.524;19.012;2023-12-07T09:33:56;10.35;;;6.63;;
40863;SDS011;26582;47.524;19.012;2023-12-07T09:36:22;12.00;;;6.28;;
40863;SDS011;26582;47.524;19.012;2023-12-07T09:38:50;9.30;;;6.22;;
40863;SDS011;26582;47.524;19.012;2023-12-07T09:41:17;11.65;;;6.43;;
40863;SDS011;26582;47.524;19.012;2023-12-07T09:43:45;11.18;;;6.40;;
40863;SDS011;26582;47.524;19.012;2023-12-07T09:46:12;9.98;;;6.72;;
40863;SDS011;26582;47.524;19.012;2023-12-07T09:48:39;10.15;;;5.82;;
40863;SDS011;26582;47.524;19.012;2023-12-07T09:51:09;14.70;;;7.90;;
40863;SDS011;26582;47.524;19.012;2023-12-07T09:53:37;16.77;;;8.55;;
40863;SDS011;26582;47.524;19.012;2023-12-07T09:56:07;10.02;;;6.78;;
40863;SDS011;26582;47.524;19.012;2023-12-07T09:58:35;13.68;;;7.28;;
40863;SDS011;26582;47.524;19.012;2023-12-07T10:01:01;9.88;;;6.20;;
40863;SDS011;26582;47.524;19.012;2023-12-07T10:03:28;10.02;;;5.95;;
40863;SDS011;26582;47.524;19.012;2023-12-07T10:05:56;9.90;;;5.93;;
40863;SDS011;26582;47.524;19.012;2023-12-07T10:08:25;10.05;;;6.15;;
40863;SDS011;26582;47.524;19.012;2023-12-07T10:11:01;11.43;;;6.43;;
40863;SDS011;26582;47.524;19.012;2023-12-07T10:13:33;12.05;;;6.15;;
40863;SDS011;26582;47.524;19.012;2023-12-07T10:16:07;8.57;;;5.80;;
40863;SDS011;26582;47.524;19.012;2023-12-07T10:18:35;8.85;;;6.03;;
40863;SDS011;26582;47.524;19.012;2023-12-07T10:21:02;10.77;;;6.28;;
40863;SDS011;26582;47.524;19.012;2023-12-07T10:23:29;10.70;;;5.97;;
40863;SDS011;26582;47.524;19.012;2023-12-07T10:25:58;8.77;;;6.05;;
40863;SDS011;26582;47.524;19.012;2023-12-07T10:28:25;8.63;;;5.43;;
40863;SDS011;26582;47.524;19.012;2023-12-07T10:30:53;8.07;;;5.75;;
40863;SDS011;26582;47.524;19.012;2023-12-07T10:33:20;10.68;;;6.70;;
40863;SDS011;26582;47.524;19.012;2023-12-07T10:35:47;8.93;;;6.22;;
40863;SDS011;26582;47.524;19.012;2023-12-07T10:38:15;7.53;;;4.97;;
40863;SDS011;26582;47.524;19.012;2023-12-07T10:40:43;12.50;;;6.38;;
40863;SDS011;26582;47.524;19.012;2023-12-07T10:43:09;9.80;;;6.15;;
40863;SDS011;26582;47.524;19.012;2023-12-07T10:45:38;8.77;;;5.68;;
40863;SDS011;26582;47.524;19.012;2023-12-07T10:48:11;10.35;;;6.80;;
40863;SDS011;26582;47.524;19.012;2023-12-07T10:53:10;9.70;;;5.55;;
40863;SDS011;26582;47.524;19.012;2023-12-07T10:55:40;9.95;;;6.53;;
40863;SDS011;26582;47.524;19.012;2023-12-07T10:58:13;9.10;;;4.72;;
40863;SDS011;26582;47.524;19.012;2023-12-07T11:00:40;9.60;;;6.43;;
40863;SDS011;26582;47.524;19.012;2023-12-07T11:03:14;10.63;;;6.25;;
40863;SDS011;26582;47.524;19.012;2023-12-07T11:05:42;10.30;;;6.18;;
40863;SDS011;26582;47.524;19.012;2023-12-07T11:08:11;10.68;;;7.47;;
40863;SDS011;26582;47.524;19.012;2023-12-07T11:10:43;12.60;;;7.50;;
40863;SDS011;26582;47.524;19.012;2023-12-07T11:13:17;10.77;;;6.60;;
40863;SDS011;26582;47.524;19.012;2023-12-07T11:15:46;9.98;;;6.25;;
40863;SDS011;26582;47.524;19.012;2023-12-07T11:18:15;12.40;;;7.55;;
40863;SDS011;26582;47.524;19.012;2023-12-07T11:20:41;13.32;;;7.68;;
40863;SDS011;26582;47.524;19.012;2023-12-07T11:23:11;13.05;;;6.93;;
40863;SDS011;26582;47.524;19.012;2023-12-07T11:25:37;12.05;;;7.50;;
40863;SDS011;26582;47.524;19.012;2023-12-07T11:28:05;11.75;;;7.25;;
40863;SDS011;26582;47.524;19.012;2023-12-07T11:30:34;13.13;;;8.45;;
40863;SDS011;26582;47.524;19.012;2023-12-07T11:33:03;14.38;;;8.20;;
40863;SDS011;26582;47.524;19.012;2023-12-07T11:35:32;12.52;;;8.23;;
40863;SDS011;26582;47.524;19.012;2023-12-07T11:38:03;16.48;;;9.07;;
40863;SDS011;26582;47.524;19.012;2023-12-07T11:40:35;15.75;;;8.93;;
40863;SDS011;26582;47.524;19.012;2023-12-07T11:43:02;13.25;;;8.38;;
40863;SDS011;26582;47.524;19.012;2023-12-07T11:45:39;12.68;;;7.88;;
40863;SDS011;26582;47.524;19.012;2023-12-07T11:48:11;11.75;;;6.88;;
40863;SDS011;26582;47.524;19.012;2023-12-07T11:50:55;13.60;;;7.80;;
40863;SDS011;26582;47.524;19.012;2023-12-07T11:53:23;14.38;;;8.50;;
40863;SDS011;26582;47.524;19.012;2023-12-07T11:55:52;13.95;;;9.02;;
40863;SDS011;26582;47.524;19.012;2023-12-07T11:58:19;15.68;;;9.85;;
40863;SDS011;26582;47.524;19.012;2023-12-07T12:00:46;17.30;;;9.30;;
40863;SDS011;26582;47.524;19.012;2023-12-07T12:03:13;17.38;;;9.57;;
40863;SDS011;26582;47.524;19.012;2023-12-07T12:05:40;15.25;;;8.63;;
40863;SDS011;26582;47.524;19.012;2023-12-07T12:08:09;14.45;;;9.07;;
40863;SDS011;26582;47.524;19.012;2023-12-07T12:10:36;19.08;;;9.57;;
40863;SDS011;26582;47.524;19.012;2023-12-07T12:13:03;14.30;;;8.85;;
40863;SDS011;26582;47.524;19.012;2023-12-07T12:15:31;14.68;;;9.55;;
40863;SDS011;26582;47.524;19.012;2023-12-07T12:17:58;14.90;;;9.13;;
40863;SDS011;26582;47.524;19.012;2023-12-07T12:20:26;17.25;;;9.90;;
40863;SDS011;26582;47.524;19.012;2023-12-07T12:22:53;17.90;;;10.65;;
40863;SDS011;26582;47.524;19.012;2023-12-07T12:25:22;16.13;;;9.60;;
40863;SDS011;26582;47.524;19.012;2023-12-07T12:27:50;16.55;;;9.90;;
40863;SDS011;26582;47.524;19.012;2023-12-07T12:30:18;15.23;;;9.43;;
40863;SDS011;26582;47.524;19.012;2023-12-07T12:32:48;16.38;;;9.77;;
40863;SDS011;26582;47.524;19.012;2023-12-07T12:35:15;17.52;;;10.10;;
40863;SDS011;26582;47.524;19.012;2023-12-07T12:37:42;17.25;;;10.18;;
40863;SDS011;26582;47.524;19.012;2023-12-07T12:40:10;16.38;;;10.05;;
40863;SDS011;26582;47.524;19.012;2023-12-07T12:42:41;16.58;;;9.73;;
40863;SDS011;26582;47.524;19.012;2023-12-07T12:45:09;18.20;;;11.10;;
40863;SDS011;26582;47.524;19.012;2023-12-07T12:47:37;16.55;;;10.50;;
40863;SDS011;26582;47.524;19.012;2023-12-07T12:50:05;23.00;;;11.55;;
40863;SDS011;26582;47.524;19.012;2023-12-07T12:52:32;18.88;;;10.77;;
40863;SDS011;26582;47.524;19.012;2023-12-07T12:54:59;16.98;;;10.38;;
40863;SDS011;26582;47.524;19.012;2023-12-07T12:57:26;19.73;;;10.75;;
40863;SDS011;26582;47.524;19.012;2023-12-07T12:59:55;16.23;;;9.93;;
40863;SDS011;26582;47.524;19.012;2023-12-07T13:02:22;17.23;;;11.13;;
40863;SDS011;26582;47.524;19.012;2023-12-07T13:04:48;17.60;;;9.95;;
40863;SDS011;26582;47.524;19.012;2023-12-07T13:07:15;14.75;;;8.50;;
40863;SDS011;26582;47.524;19.012;2023-12-07T13:09:42;19.13;;;10.45;;
40863;SDS011;26582;47.524;19.012;2023-12-07T13:12:09;17.23;;;10.25;;
40863;SDS011;26582;47.524;19.012;2023-12-07T13:14:36;17.20;;;10.20;;
40863;SDS011;26582;47.524;19.012;2023-12-07T13:17:06;13.90;;;9.63;;
40863;SDS011;26582;47.524;19.012;2023-12-07T13:19:33;17.03;;;9.73;;
40863;SDS011;26582;47.524;19.012;2023-12-07T13:22:00;16.50;;;10.32;;
40863;SDS011;26582;47.524;19.012;2023-12-07T13:24:28;15.93;;;8.98;;
40863;SDS011;26582;47.524;19.012;2023-12-07T13:26:55;17.33;;;10.82;;
40863;SDS011;26582;47.524;19.012;2023-12-07T13:29:23;17.42;;;9.48;;
40863;SDS011;26582;47.524;19.012;2023-12-07T13:31:49;15.63;;;9.43;;
40863;SDS011;26582;47.524;19.012;2023-12-07T13:34:17;16.77;;;10.75;;
40863;SDS011;26582;47.524;19.012;2023-12-07T13:36:46;17.30;;;10.10;;
40863;SDS011;26582;47.524;19.012;2023-12-07T13:39:13;17.60;;;9.65;;
40863;SDS011;26582;47.524;19.012;2023-12-07T13:41:40;8.75;;;6.05;;
40863;SDS011;26582;47.524;19.012;2023-12-07T13:44:07;15.25;;;9.10;;
40863;SDS011;26582;47.524;19.012;2023-12-07T13:46:33;16.35;;;10.43;;
40863;SDS011;26582;47.524;19.012;2023-12-07T13:49:02;15.73;;;9.60;;
40863;SDS011;26582;47.524;19.012;2023-12-07T13:51:30;17.75;;;10.57;;
40863;SDS011;26582;47.524;19.012;2023-12-07T13:53:59;16.02;;;10.30;;
40863;SDS011;26582;47.524;19.012;2023-12-07T13:56:25;18.77;;;11.05;;
40863;SDS011;26582;47.524;19.012;2023-12-07T13:58:52;19.08;;;10.48;;
40863;SDS011;26582;47.524;19.012;2023-12-07T14:01:19;16.70;;;10.32;;
40863;SDS011;26582;47.524;19.012;2023-12-07T14:03:46;21.02;;;11.75;;
40863;SDS011;26582;47.524;19.012;2023-12-07T14:06:20;19.20;;;11.88;;
40863;SDS011;26582;47.524;19.012;2023-12-07T14:08:50;20.40;;;11.18;;
40863;SDS011;26582;47.524;19.012;2023-12-07T14:11:17;25.08;;;12.77;;
40863;SDS011;26582;47.524;19.012;2023-12-07T14:13:44;20.73;;;11.95;;
40863;SDS011;26582;47.524;19.012;2023-12-07T14:16:11;20.33;;;12.98;;
40863;SDS011;26582;47.524;19.012;2023-12-07T14:18:38;24.02;;;13.10;;
40863;SDS011;26582;47.524;19.012;2023-12-07T14:21:05;23.15;;;12.40;;
40863;SDS011;26582;47.524;19.012;2023-12-07T14:23:31;23.35;;;12.93;;
40863;SDS011;26582;47.524;19.012;2023-12-07T14:25:59;21.85;;;13.18;;
40863;SDS011;26582;47.524;19.012;2023-12-07T14:28:26;21.05;;;12.25;;
40863;SDS011;26582;47.524;19.012;2023-12-07T14:30:55;24.07;;;13.70;;
40863;SDS011;26582;47.524;19.012;2023-12-07T14:33:22;25.27;;;13.48;;
40863;SDS011;26582;47.524;19.012;2023-12-07T14:35:49;23.77;;;12.77;;